sensor_id;sensor_type;location;lat;lon;timestamp;P1;durP1;ratioP1;P2;durP2;ratioP2
28170;SDS011;15458;53.346;-1.688;2023-02-15T00:01:42;45.50;;;20.38;;
28170;SDS011;15458;53.346;-1.688;2023-02-15T00:04:08;43.67;;;21.42;;
28170;SDS011;15458;53.346;-1.688;2023-02-15T00:06:35;44.80;;;20.45;;
28170;SDS011;15458;53.346;-1.688;2023-02-15T00:09:01;49.28;;;21.45;;
28170;SDS011;15458;53.346;-1.688;2023-02-15T00:11:28;45.33;;;22.38;;
28170;SDS011;15458;53.346;-1.688;2023-02-15T00:14:13;45.25;;;21.10;;
28170;SDS011;15458;53.346;-1.688;2023-02-15T00:16:46;42.88;;;20.75;;
28170;SDS011;15458;53.346;-1.688;2023-02-15T00:19:14;44.65;;;20.75;;
28170;SDS011;15458;53.346;-1.688;2023-02-15T00:21:41;40.47;;;20.60;;
28170;SDS011;15458;53.346;-1.688;2023-02-15T00:24:07;41.88;;;19.58;;
28170;SDS011;15458;53.346;-1.688;2023-02-15T00:26:34;44.83;;;20.50;;
28170;SDS011;15458;53.346;-1.688;2023-02-15T00:29:02;40.42;;;18.90;;
28170;SDS011;15458;53.346;-1.688;2023-02-15T00:31:30;39.17;;;17.77;;
28170;SDS011;15458;53.346;-1.688;2023-02-15T00:34:07;40.20;;;17.98;;
28170;SDS011;15458;53.346;-1.688;2023-02-15T00:39:04;36.17;;;17.25;;
28170;SDS011;15458;53.346;-1.688;2023-02-15T00:41:30;41.20;;;18.63;;
28170;SDS011;15458;53.346;-1.688;2023-02-15T00:43:56;38.28;;;17.25;;
28170;SDS011;15458;53.346;-1.688;2023-02-15T00:46:23;43.55;;;18.58;;
28170;SDS011;15458;53.346;-1.688;2023-02-15T00:48:49;39.80;;;19.25;;
28170;SDS011;15458;53.346;-1.688;2023-02-15T00:51:15;46.72;;;19.60;;
28170;SDS011;15458;53.346;-1.688;2023-02-15T00:53:42;39.40;;;18.80;;
28170;SDS011;15458;53.346;-1.688;2023-02-15T00:56:09;40.97;;;19.88;;
28170;SDS011;15458;53.346;-1.688;2023-02-15T00:58:35;38.60;;;17.67;;
28170;SDS011;15458;53.346;-1.688;2023-02-15T01:01:05;36.38;;;16.10;;
28170;SDS011;15458;53.346;-1.688;2023-02-15T01:03:36;39.25;;;17.73;;
28170;SDS011;15458;53.346;-1.688;2023-02-15T01:06:02;36.00;;;18.23;;
28170;SDS011;15458;53.346;-1.688;2023-02-15T01:08:29;40.72;;;18.10;;
28170;SDS011;15458;53.346;-1.688;2023-02-15T01:10:55;36.97;;;17.15;;
28170;SDS011;15458;53.346;-1.688;2023-02-15T01:13:21;43.17;;;18.45;;
28170;SDS011;15458;53.346;-1.688;2023-02-15T01:15:56;37.90;;;17.63;;
28170;SDS011;15458;53.346;-1.688;2023-02-15T01:18:22;35.33;;;17.73;;
28170;SDS011;15458;53.346;-1.688;2023-02-15T01:20:48;47.80;;;21.60;;
28170;SDS011;15458;53.346;-1.688;2023-02-15T01:23:14;40.47;;;18.77;;
28170;SDS011;15458;53.346;-1.688;2023-02-15T01:25:40;41.70;;;18.40;;
28170;SDS011;15458;53.346;-1.688;2023-02-15T01:28:06;36.85;;;17.50;;
28170;SDS011;15458;53.346;-1.688;2023-02-15T01:30:32;43.15;;;18.58;;
28170;SDS011;15458;53.346;-1.688;2023-02-15T01:32:58;39.72;;;19.17;;
28170;SDS011;15458;53.346;-1.688;2023-02-15T01:35:26;47.97;;;19.48;;
28170;SDS011;15458;53.346;-1.688;2023-02-15T01:37:52;42.53;;;18.63;;
28170;SDS011;15458;53.346;-1.688;2023-02-15T01:40:18;37.17;;;17.73;;
28170;SDS011;15458;53.346;-1.688;2023-02-15T01:42:45;43.28;;;19.90;;
28170;SDS011;15458;53.346;-1.688;2023-02-15T01:48:52;41.78;;;18.83;;
28170;SDS011;15458;53.346;-1.688;2023-02-15T01:50:50;41.70;;;18.83;;
28170;SDS011;15458;53.346;-1.688;2023-02-15T01:55:53;42.53;;;19.27;;
28170;SDS011;15458;53.346;-1.688;2023-02-15T01:58:25;44.40;;;19.20;;
28170;SDS011;15458;53.346;-1.688;2023-02-15T02:00:52;44.15;;;20.13;;
28170;SDS011;15458;53.346;-1.688;2023-02-15T02:03:54;41.33;;;19.60;;
28170;SDS011;15458;53.346;-1.688;2023-02-15T02:06:14;40.70;;;19.33;;
28170;SDS011;15458;53.346;-1.688;2023-02-15T02:08:41;42.60;;;20.30;;
28170;SDS011;15458;53.346;-1.688;2023-02-15T02:11:11;52.03;;;19.80;;
28170;SDS011;15458;53.346;-1.688;2023-02-15T02:13:40;42.13;;;18.67;;
28170;SDS011;15458;53.346;-1.688;2023-02-15T02:16:10;40.45;;;18.08;;
28170;SDS011;15458;53.346;-1.688;2023-02-15T02:35:53;41.63;;;19.33;;
28170;SDS011;15458;53.346;-1.688;2023-02-15T02:43:54;53.50;;;22.02;;
28170;SDS011;15458;53.346;-1.688;2023-02-15T02:46:35;46.50;;;21.02;;
28170;SDS011;15458;53.346;-1.688;2023-02-15T02:49:09;44.65;;;20.63;;
28170;SDS011;15458;53.346;-1.688;2023-02-15T02:51:35;43.20;;;20.73;;
28170;SDS011;15458;53.346;-1.688;2023-02-15T02:54:00;51.97;;;22.30;;
28170;SDS011;15458;53.346;-1.688;2023-02-15T02:56:39;47.88;;;22.02;;
28170;SDS011;15458;53.346;-1.688;2023-02-15T02:59:15;51.50;;;21.98;;
28170;SDS011;15458;53.346;-1.688;2023-02-15T03:01:55;43.53;;;20.67;;
28170;SDS011;15458;53.346;-1.688;2023-02-15T03:04:35;48.38;;;20.33;;
28170;SDS011;15458;53.346;-1.688;2023-02-15T03:07:05;47.65;;;21.05;;
28170;SDS011;15458;53.346;-1.688;2023-02-15T03:09:38;43.97;;;19.85;;
28170;SDS011;15458;53.346;-1.688;2023-02-15T03:12:31;46.63;;;20.08;;
28170;SDS011;15458;53.346;-1.688;2023-02-15T03:15:10;42.65;;;19.77;;
28170;SDS011;15458;53.346;-1.688;2023-02-15T03:17:45;44.30;;;20.83;;
28170;SDS011;15458;53.346;-1.688;2023-02-15T03:20:18;51.33;;;21.83;;
28170;SDS011;15458;53.346;-1.688;2023-02-15T03:23:00;51.28;;;20.83;;
28170;SDS011;15458;53.346;-1.688;2023-02-15T03:28:03;50.38;;;20.17;;
28170;SDS011;15458;53.346;-1.688;2023-02-15T03:30:32;50.40;;;22.00;;
28170;SDS011;15458;53.346;-1.688;2023-02-15T03:33:07;52.33;;;21.65;;
28170;SDS011;15458;53.346;-1.688;2023-02-15T03:35:49;48.72;;;22.65;;
28170;SDS011;15458;53.346;-1.688;2023-02-15T03:38:23;52.70;;;22.73;;
28170;SDS011;15458;53.346;-1.688;2023-02-15T03:41:01;50.50;;;22.17;;
28170;SDS011;15458;53.346;-1.688;2023-02-15T03:43:41;46.88;;;20.77;;
28170;SDS011;15458;53.346;-1.688;2023-02-15T03:46:20;49.03;;;20.85;;
28170;SDS011;15458;53.346;-1.688;2023-02-15T03:49:54;46.33;;;20.05;;
28170;SDS011;15458;53.346;-1.688;2023-02-15T03:51:50;55.78;;;22.10;;
28170;SDS011;15458;53.346;-1.688;2023-02-15T03:54:24;53.92;;;20.83;;
28170;SDS011;15458;53.346;-1.688;2023-02-15T03:57:07;47.80;;;20.02;;
28170;SDS011;15458;53.346;-1.688;2023-02-15T04:00:00;55.30;;;22.73;;
28170;SDS011;15458;53.346;-1.688;2023-02-15T04:05:15;53.83;;;22.02;;
28170;SDS011;15458;53.346;-1.688;2023-02-15T04:07:41;55.83;;;21.10;;
28170;SDS011;15458;53.346;-1.688;2023-02-15T04:10:06;56.40;;;24.05;;
28170;SDS011;15458;53.346;-1.688;2023-02-15T04:12:50;56.08;;;21.33;;
28170;SDS011;15458;53.346;-1.688;2023-02-15T04:15:16;50.38;;;20.80;;
28170;SDS011;15458;53.346;-1.688;2023-02-15T04:18:02;47.05;;;22.15;;
28170;SDS011;15458;53.346;-1.688;2023-02-15T04:20:28;50.53;;;20.92;;
28170;SDS011;15458;53.346;-1.688;2023-02-15T04:23:12;54.25;;;20.70;;
28170;SDS011;15458;53.346;-1.688;2023-02-15T04:25:56;45.92;;;20.40;;
28170;SDS011;15458;53.346;-1.688;2023-02-15T04:28:22;54.10;;;22.27;;
28170;SDS011;15458;53.346;-1.688;2023-02-15T04:30:47;57.40;;;21.63;;
28170;SDS011;15458;53.346;-1.688;2023-02-15T04:33:13;53.42;;;22.83;;
28170;SDS011;15458;53.346;-1.688;2023-02-15T04:35:39;50.80;;;21.63;;
28170;SDS011;15458;53.346;-1.688;2023-02-15T04:38:04;55.65;;;21.35;;
28170;SDS011;15458;53.346;-1.688;2023-02-15T04:40:30;61.35;;;25.27;;
28170;SDS011;15458;53.346;-1.688;2023-02-15T04:42:56;71.38;;;27.67;;
28170;SDS011;15458;53.346;-1.688;2023-02-15T04:45:21;59.80;;;25.55;;
28170;SDS011;15458;53.346;-1.688;2023-02-15T04:47:47;63.88;;;25.02;;
28170;SDS011;15458;53.346;-1.688;2023-02-15T04:50:12;61.50;;;25.88;;
28170;SDS011;15458;53.346;-1.688;2023-02-15T04:52:38;62.17;;;24.30;;
28170;SDS011;15458;53.346;-1.688;2023-02-15T04:55:04;59.83;;;23.95;;
28170;SDS011;15458;53.346;-1.688;2023-02-15T04:57:30;76.13;;;27.98;;
28170;SDS011;15458;53.346;-1.688;2023-02-15T04:59:56;74.35;;;26.05;;
28170;SDS011;15458;53.346;-1.688;2023-02-15T05:02:23;76.88;;;25.92;;
28170;SDS011;15458;53.346;-1.688;2023-02-15T05:04:49;56.50;;;23.00;;
28170;SDS011;15458;53.346;-1.688;2023-02-15T05:07:15;60.63;;;23.98;;
28170;SDS011;15458;53.346;-1.688;2023-02-15T05:09:41;66.30;;;24.50;;
28170;SDS011;15458;53.346;-1.688;2023-02-15T05:12:06;77.15;;;29.40;;
28170;SDS011;15458;53.346;-1.688;2023-02-15T05:14:32;83.00;;;30.35;;
28170;SDS011;15458;53.346;-1.688;2023-02-15T05:16:58;55.13;;;23.75;;
28170;SDS011;15458;53.346;-1.688;2023-02-15T05:19:26;74.35;;;28.75;;
28170;SDS011;15458;53.346;-1.688;2023-02-15T05:21:52;71.75;;;27.25;;
28170;SDS011;15458;53.346;-1.688;2023-02-15T05:24:17;71.95;;;26.25;;
28170;SDS011;15458;53.346;-1.688;2023-02-15T05:27:02;55.60;;;22.83;;
28170;SDS011;15458;53.346;-1.688;2023-02-15T05:29:46;59.35;;;24.05;;
28170;SDS011;15458;53.346;-1.688;2023-02-15T05:32:14;60.38;;;23.75;;
28170;SDS011;15458;53.346;-1.688;2023-02-15T05:34:40;65.28;;;25.38;;
28170;SDS011;15458;53.346;-1.688;2023-02-15T05:37:06;69.03;;;25.15;;
28170;SDS011;15458;53.346;-1.688;2023-02-15T05:39:50;56.25;;;22.17;;
28170;SDS011;15458;53.346;-1.688;2023-02-15T05:42:16;58.95;;;23.80;;
28170;SDS011;15458;53.346;-1.688;2023-02-15T05:44:42;62.75;;;25.00;;
28170;SDS011;15458;53.346;-1.688;2023-02-15T05:47:08;58.13;;;22.80;;
28170;SDS011;15458;53.346;-1.688;2023-02-15T05:49:34;57.50;;;24.45;;
28170;SDS011;15458;53.346;-1.688;2023-02-15T05:51:59;61.28;;;25.00;;
28170;SDS011;15458;53.346;-1.688;2023-02-15T05:54:25;59.60;;;24.50;;
28170;SDS011;15458;53.346;-1.688;2023-02-15T05:56:51;60.47;;;23.13;;
28170;SDS011;15458;53.346;-1.688;2023-02-15T05:59:16;56.17;;;21.65;;
28170;SDS011;15458;53.346;-1.688;2023-02-15T06:01:42;59.85;;;22.95;;
28170;SDS011;15458;53.346;-1.688;2023-02-15T06:04:08;67.38;;;26.55;;
28170;SDS011;15458;53.346;-1.688;2023-02-15T06:06:34;65.13;;;25.58;;
28170;SDS011;15458;53.346;-1.688;2023-02-15T06:09:00;53.95;;;21.33;;
28170;SDS011;15458;53.346;-1.688;2023-02-15T06:11:25;62.75;;;23.52;;
28170;SDS011;15458;53.346;-1.688;2023-02-15T06:13:51;65.60;;;24.85;;
28170;SDS011;15458;53.346;-1.688;2023-02-15T06:16:16;71.45;;;26.30;;
28170;SDS011;15458;53.346;-1.688;2023-02-15T06:18:42;67.50;;;24.65;;
28170;SDS011;15458;53.346;-1.688;2023-02-15T06:21:08;62.45;;;23.05;;
28170;SDS011;15458;53.346;-1.688;2023-02-15T06:23:33;56.15;;;22.67;;
28170;SDS011;15458;53.346;-1.688;2023-02-15T06:25:59;59.63;;;24.30;;
28170;SDS011;15458;53.346;-1.688;2023-02-15T06:28:25;61.20;;;25.55;;
28170;SDS011;15458;53.346;-1.688;2023-02-15T06:30:50;67.20;;;26.10;;
28170;SDS011;15458;53.346;-1.688;2023-02-15T06:33:17;63.58;;;25.70;;
28170;SDS011;15458;53.346;-1.688;2023-02-15T06:35:42;63.28;;;25.65;;
28170;SDS011;15458;53.346;-1.688;2023-02-15T06:38:09;64.18;;;25.10;;
28170;SDS011;15458;53.346;-1.688;2023-02-15T06:40:35;61.33;;;24.25;;
28170;SDS011;15458;53.346;-1.688;2023-02-15T06:43:00;62.25;;;24.88;;
28170;SDS011;15458;53.346;-1.688;2023-02-15T06:45:26;67.22;;;25.67;;
28170;SDS011;15458;53.346;-1.688;2023-02-15T06:47:52;68.57;;;27.00;;
28170;SDS011;15458;53.346;-1.688;2023-02-15T06:50:17;68.85;;;26.60;;
28170;SDS011;15458;53.346;-1.688;2023-02-15T06:52:43;72.97;;;24.00;;
28170;SDS011;15458;53.346;-1.688;2023-02-15T06:55:09;64.97;;;25.33;;
28170;SDS011;15458;53.346;-1.688;2023-02-15T06:57:34;65.25;;;26.05;;
28170;SDS011;15458;53.346;-1.688;2023-02-15T07:00:03;62.63;;;24.48;;
28170;SDS011;15458;53.346;-1.688;2023-02-15T07:02:29;59.20;;;23.52;;
28170;SDS011;15458;53.346;-1.688;2023-02-15T07:04:56;60.38;;;23.25;;
28170;SDS011;15458;53.346;-1.688;2023-02-15T07:07:22;54.67;;;23.50;;
28170;SDS011;15458;53.346;-1.688;2023-02-15T07:09:47;68.22;;;24.13;;
28170;SDS011;15458;53.346;-1.688;2023-02-15T07:12:13;62.65;;;25.30;;
28170;SDS011;15458;53.346;-1.688;2023-02-15T07:14:57;62.22;;;23.73;;
28170;SDS011;15458;53.346;-1.688;2023-02-15T07:17:23;73.38;;;25.77;;
28170;SDS011;15458;53.346;-1.688;2023-02-15T07:19:49;64.43;;;26.10;;
28170;SDS011;15458;53.346;-1.688;2023-02-15T07:22:15;70.93;;;24.35;;
28170;SDS011;15458;53.346;-1.688;2023-02-15T07:24:40;65.32;;;25.65;;
28170;SDS011;15458;53.346;-1.688;2023-02-15T07:27:06;72.65;;;24.20;;
28170;SDS011;15458;53.346;-1.688;2023-02-15T07:29:32;60.92;;;23.90;;
28170;SDS011;15458;53.346;-1.688;2023-02-15T07:31:58;67.15;;;27.13;;
28170;SDS011;15458;53.346;-1.688;2023-02-15T07:34:24;65.22;;;23.70;;
28170;SDS011;15458;53.346;-1.688;2023-02-15T07:36:52;62.15;;;25.92;;
28170;SDS011;15458;53.346;-1.688;2023-02-15T07:39:18;55.15;;;22.58;;
28170;SDS011;15458;53.346;-1.688;2023-02-15T07:41:44;60.75;;;24.27;;
28170;SDS011;15458;53.346;-1.688;2023-02-15T07:44:13;69.75;;;28.20;;
28170;SDS011;15458;53.346;-1.688;2023-02-15T07:46:40;55.17;;;22.97;;
28170;SDS011;15458;53.346;-1.688;2023-02-15T07:49:06;68.60;;;26.75;;
28170;SDS011;15458;53.346;-1.688;2023-02-15T07:51:31;64.35;;;25.60;;
28170;SDS011;15458;53.346;-1.688;2023-02-15T07:53:57;63.47;;;26.83;;
28170;SDS011;15458;53.346;-1.688;2023-02-15T07:56:23;68.93;;;24.92;;
28170;SDS011;15458;53.346;-1.688;2023-02-15T07:58:48;61.22;;;25.10;;
28170;SDS011;15458;53.346;-1.688;2023-02-15T08:01:17;69.55;;;26.42;;
28170;SDS011;15458;53.346;-1.688;2023-02-15T08:03:45;74.35;;;28.35;;
28170;SDS011;15458;53.346;-1.688;2023-02-15T08:06:11;77.82;;;28.42;;
28170;SDS011;15458;53.346;-1.688;2023-02-15T08:08:38;83.07;;;32.80;;
28170;SDS011;15458;53.346;-1.688;2023-02-15T08:11:14;88.07;;;33.65;;
28170;SDS011;15458;53.346;-1.688;2023-02-15T08:17:35;70.80;;;26.95;;
28170;SDS011;15458;53.346;-1.688;2023-02-15T08:20:02;88.72;;;32.20;;
28170;SDS011;15458;53.346;-1.688;2023-02-15T08:22:28;96.70;;;34.60;;
28170;SDS011;15458;53.346;-1.688;2023-02-15T08:24:54;100.70;;;35.85;;
28170;SDS011;15458;53.346;-1.688;2023-02-15T08:27:20;118.25;;;41.13;;
28170;SDS011;15458;53.346;-1.688;2023-02-15T08:29:51;113.35;;;40.95;;
28170;SDS011;15458;53.346;-1.688;2023-02-15T08:32:17;96.47;;;38.10;;
28170;SDS011;15458;53.346;-1.688;2023-02-15T08:34:42;93.18;;;36.83;;
28170;SDS011;15458;53.346;-1.688;2023-02-15T08:37:08;117.03;;;42.42;;
28170;SDS011;15458;53.346;-1.688;2023-02-15T08:39:34;92.20;;;38.78;;
28170;SDS011;15458;53.346;-1.688;2023-02-15T08:42:00;97.97;;;40.10;;
28170;SDS011;15458;53.346;-1.688;2023-02-15T08:44:26;112.47;;;42.70;;
28170;SDS011;15458;53.346;-1.688;2023-02-15T08:46:52;115.68;;;45.15;;
28170;SDS011;15458;53.346;-1.688;2023-02-15T08:49:20;118.85;;;43.45;;
28170;SDS011;15458;53.346;-1.688;2023-02-15T08:51:46;113.15;;;43.35;;
28170;SDS011;15458;53.346;-1.688;2023-02-15T08:54:15;119.50;;;45.45;;
28170;SDS011;15458;53.346;-1.688;2023-02-15T08:56:43;111.05;;;41.55;;
28170;SDS011;15458;53.346;-1.688;2023-02-15T08:59:16;94.82;;;37.90;;
28170;SDS011;15458;53.346;-1.688;2023-02-15T09:01:44;109.82;;;41.13;;
28170;SDS011;15458;53.346;-1.688;2023-02-15T09:04:10;104.35;;;40.90;;
28170;SDS011;15458;53.346;-1.688;2023-02-15T09:06:37;133.15;;;47.58;;
28170;SDS011;15458;53.346;-1.688;2023-02-15T09:09:04;108.80;;;42.15;;
28170;SDS011;15458;53.346;-1.688;2023-02-15T09:11:35;101.05;;;37.42;;
28170;SDS011;15458;53.346;-1.688;2023-02-15T09:14:04;96.90;;;38.20;;
28170;SDS011;15458;53.346;-1.688;2023-02-15T09:16:33;88.05;;;37.03;;
28170;SDS011;15458;53.346;-1.688;2023-02-15T09:19:01;103.57;;;40.22;;
28170;SDS011;15458;53.346;-1.688;2023-02-15T09:21:29;91.50;;;38.72;;
28170;SDS011;15458;53.346;-1.688;2023-02-15T09:23:57;90.78;;;36.67;;
28170;SDS011;15458;53.346;-1.688;2023-02-15T09:26:26;104.10;;;40.75;;
28170;SDS011;15458;53.346;-1.688;2023-02-15T09:28:54;97.35;;;40.15;;
28170;SDS011;15458;53.346;-1.688;2023-02-15T09:31:24;96.70;;;40.30;;
28170;SDS011;15458;53.346;-1.688;2023-02-15T09:33:52;86.60;;;37.97;;
28170;SDS011;15458;53.346;-1.688;2023-02-15T09:36:20;110.68;;;45.45;;
28170;SDS011;15458;53.346;-1.688;2023-02-15T09:39:10;91.47;;;38.92;;
28170;SDS011;15458;53.346;-1.688;2023-02-15T09:56:16;124.35;;;50.67;;
28170;SDS011;15458;53.346;-1.688;2023-02-15T09:58:52;95.22;;;38.33;;
28170;SDS011;15458;53.346;-1.688;2023-02-15T10:10:24;104.38;;;42.17;;
28170;SDS011;15458;53.346;-1.688;2023-02-15T10:24:15;92.53;;;36.70;;
28170;SDS011;15458;53.346;-1.688;2023-02-15T10:26:46;92.53;;;46.80;;
28170;SDS011;15458;53.346;-1.688;2023-02-15T10:32:20;81.32;;;36.30;;
28170;SDS011;15458;53.346;-1.688;2023-02-15T10:34:51;77.95;;;40.13;;
28170;SDS011;15458;53.346;-1.688;2023-02-15T10:43:01;70.82;;;33.28;;
28170;SDS011;15458;53.346;-1.688;2023-02-15T10:51:20;59.70;;;29.25;;
28170;SDS011;15458;53.346;-1.688;2023-02-15T10:54:18;58.13;;;28.80;;
28170;SDS011;15458;53.346;-1.688;2023-02-15T10:57:08;65.07;;;31.38;;
28170;SDS011;15458;53.346;-1.688;2023-02-15T10:59:51;51.60;;;27.15;;
28170;SDS011;15458;53.346;-1.688;2023-02-15T11:08:19;55.25;;;28.20;;
28170;SDS011;15458;53.346;-1.688;2023-02-15T11:10:49;48.03;;;25.92;;
28170;SDS011;15458;53.346;-1.688;2023-02-15T11:13:19;58.40;;;29.42;;
28170;SDS011;15458;53.346;-1.688;2023-02-15T11:15:55;57.95;;;29.17;;
28170;SDS011;15458;53.346;-1.688;2023-02-15T11:23:45;48.75;;;22.92;;
28170;SDS011;15458;53.346;-1.688;2023-02-15T11:26:16;49.95;;;23.85;;
28170;SDS011;15458;53.346;-1.688;2023-02-15T11:29:12;42.90;;;22.33;;
28170;SDS011;15458;53.346;-1.688;2023-02-15T11:31:54;43.92;;;21.83;;
28170;SDS011;15458;53.346;-1.688;2023-02-15T11:36:54;36.60;;;18.35;;
28170;SDS011;15458;53.346;-1.688;2023-02-15T11:39:24;33.53;;;16.63;;
28170;SDS011;15458;53.346;-1.688;2023-02-15T11:41:54;34.60;;;16.52;;
28170;SDS011;15458;53.346;-1.688;2023-02-15T11:44:36;33.03;;;15.82;;
28170;SDS011;15458;53.346;-1.688;2023-02-15T11:47:12;31.73;;;15.45;;
28170;SDS011;15458;53.346;-1.688;2023-02-15T11:49:39;36.00;;;16.02;;
28170;SDS011;15458;53.346;-1.688;2023-02-15T11:52:11;36.65;;;15.88;;
28170;SDS011;15458;53.346;-1.688;2023-02-15T11:54:40;32.45;;;15.13;;
28170;SDS011;15458;53.346;-1.688;2023-02-15T11:57:16;34.33;;;16.48;;
28170;SDS011;15458;53.346;-1.688;2023-02-15T12:00:23;33.05;;;16.85;;
28170;SDS011;15458;53.346;-1.688;2023-02-15T12:02:46;41.75;;;19.02;;
28170;SDS011;15458;53.346;-1.688;2023-02-15T12:05:17;42.58;;;18.45;;
28170;SDS011;15458;53.346;-1.688;2023-02-15T12:13:53;27.52;;;14.95;;
28170;SDS011;15458;53.346;-1.688;2023-02-15T12:16:22;33.47;;;16.05;;
28170;SDS011;15458;53.346;-1.688;2023-02-15T12:18:49;33.00;;;14.65;;
28170;SDS011;15458;53.346;-1.688;2023-02-15T12:21:27;34.78;;;15.25;;
28170;SDS011;15458;53.346;-1.688;2023-02-15T12:24:18;41.08;;;16.50;;
28170;SDS011;15458;53.346;-1.688;2023-02-15T12:26:44;33.40;;;14.82;;
28170;SDS011;15458;53.346;-1.688;2023-02-15T12:29:24;38.65;;;14.75;;
28170;SDS011;15458;53.346;-1.688;2023-02-15T12:31:52;43.83;;;23.42;;
28170;SDS011;15458;53.346;-1.688;2023-02-15T12:34:22;43.85;;;18.60;;
28170;SDS011;15458;53.346;-1.688;2023-02-15T12:36:54;33.45;;;17.58;;
28170;SDS011;15458;53.346;-1.688;2023-02-15T12:39:28;36.72;;;19.70;;
28170;SDS011;15458;53.346;-1.688;2023-02-15T12:42:13;38.10;;;17.42;;
28170;SDS011;15458;53.346;-1.688;2023-02-15T12:44:52;34.50;;;17.58;;
28170;SDS011;15458;53.346;-1.688;2023-02-15T12:47:26;36.90;;;15.77;;
28170;SDS011;15458;53.346;-1.688;2023-02-15T12:50:08;33.35;;;13.75;;
28170;SDS011;15458;53.346;-1.688;2023-02-15T12:52:45;31.50;;;14.98;;
28170;SDS011;15458;53.346;-1.688;2023-02-15T12:57:47;29.08;;;15.15;;
28170;SDS011;15458;53.346;-1.688;2023-02-15T13:08:00;36.67;;;17.58;;
28170;SDS011;15458;53.346;-1.688;2023-02-15T13:10:28;33.78;;;14.77;;
28170;SDS011;15458;53.346;-1.688;2023-02-15T13:13:09;37.78;;;15.57;;
28170;SDS011;15458;53.346;-1.688;2023-02-15T13:15:44;40.33;;;15.25;;
28170;SDS011;15458;53.346;-1.688;2023-02-15T13:18:15;31.70;;;14.77;;
28170;SDS011;15458;53.346;-1.688;2023-02-15T13:20:51;32.92;;;16.02;;
28170;SDS011;15458;53.346;-1.688;2023-02-15T13:25:49;32.78;;;16.75;;
28170;SDS011;15458;53.346;-1.688;2023-02-15T13:28:17;38.25;;;17.15;;
28170;SDS011;15458;53.346;-1.688;2023-02-15T13:30:48;32.47;;;14.88;;
28170;SDS011;15458;53.346;-1.688;2023-02-15T13:56:15;37.25;;;16.05;;
28170;SDS011;15458;53.346;-1.688;2023-02-15T14:04:19;30.13;;;15.48;;
28170;SDS011;15458;53.346;-1.688;2023-02-15T14:09:47;34.17;;;15.60;;
28170;SDS011;15458;53.346;-1.688;2023-02-15T14:26:04;30.38;;;13.18;;
28170;SDS011;15458;53.346;-1.688;2023-02-15T14:28:45;26.85;;;13.77;;
28170;SDS011;15458;53.346;-1.688;2023-02-15T14:31:15;23.88;;;12.85;;
28170;SDS011;15458;53.346;-1.688;2023-02-15T14:33:57;27.92;;;13.40;;
28170;SDS011;15458;53.346;-1.688;2023-02-15T14:36:23;29.48;;;15.20;;
28170;SDS011;15458;53.346;-1.688;2023-02-15T14:39:06;33.70;;;17.08;;
28170;SDS011;15458;53.346;-1.688;2023-02-15T14:42:21;34.42;;;14.93;;
28170;SDS011;15458;53.346;-1.688;2023-02-15T14:44:58;26.05;;;14.13;;
28170;SDS011;15458;53.346;-1.688;2023-02-15T14:47:34;33.78;;;16.63;;
28170;SDS011;15458;53.346;-1.688;2023-02-15T14:58:54;32.92;;;16.70;;
28170;SDS011;15458;53.346;-1.688;2023-02-15T15:01:25;38.80;;;16.58;;
28170;SDS011;15458;53.346;-1.688;2023-02-15T15:03:54;26.73;;;15.05;;
28170;SDS011;15458;53.346;-1.688;2023-02-15T15:06:23;35.85;;;16.23;;
28170;SDS011;15458;53.346;-1.688;2023-02-15T15:08:58;33.78;;;16.25;;
28170;SDS011;15458;53.346;-1.688;2023-02-15T15:14:15;34.28;;;15.98;;
28170;SDS011;15458;53.346;-1.688;2023-02-15T15:16:56;34.13;;;17.02;;
28170;SDS011;15458;53.346;-1.688;2023-02-15T15:22:25;32.00;;;15.20;;
28170;SDS011;15458;53.346;-1.688;2023-02-15T15:24:53;32.80;;;14.15;;
28170;SDS011;15458;53.346;-1.688;2023-02-15T15:27:36;35.47;;;17.40;;
28170;SDS011;15458;53.346;-1.688;2023-02-15T15:33:37;32.53;;;15.90;;
28170;SDS011;15458;53.346;-1.688;2023-02-15T15:49:42;30.43;;;16.10;;
28170;SDS011;15458;53.346;-1.688;2023-02-15T15:52:12;27.85;;;12.40;;
28170;SDS011;15458;53.346;-1.688;2023-02-15T15:54:40;25.23;;;13.02;;
28170;SDS011;15458;53.346;-1.688;2023-02-15T15:57:12;22.13;;;12.10;;
28170;SDS011;15458;53.346;-1.688;2023-02-15T15:59:53;22.70;;;11.73;;
28170;SDS011;15458;53.346;-1.688;2023-02-15T16:02:22;20.27;;;11.13;;
28170;SDS011;15458;53.346;-1.688;2023-02-15T16:04:48;24.67;;;12.23;;
28170;SDS011;15458;53.346;-1.688;2023-02-15T16:12:45;22.08;;;10.15;;
28170;SDS011;15458;53.346;-1.688;2023-02-15T16:15:20;21.20;;;11.13;;
28170;SDS011;15458;53.346;-1.688;2023-02-15T16:17:49;19.58;;;10.80;;
28170;SDS011;15458;53.346;-1.688;2023-02-15T16:20:21;20.48;;;11.25;;
28170;SDS011;15458;53.346;-1.688;2023-02-15T16:22:48;22.85;;;11.40;;
28170;SDS011;15458;53.346;-1.688;2023-02-15T16:27:56;19.63;;;11.38;;
28170;SDS011;15458;53.346;-1.688;2023-02-15T16:30:26;21.00;;;11.60;;
28170;SDS011;15458;53.346;-1.688;2023-02-15T16:35:40;22.55;;;11.55;;
28170;SDS011;15458;53.346;-1.688;2023-02-15T16:41:07;23.23;;;11.90;;
28170;SDS011;15458;53.346;-1.688;2023-02-15T16:43:36;23.55;;;11.30;;
28170;SDS011;15458;53.346;-1.688;2023-02-15T16:46:15;18.67;;;10.77;;
28170;SDS011;15458;53.346;-1.688;2023-02-15T16:48:46;21.75;;;11.75;;
28170;SDS011;15458;53.346;-1.688;2023-02-15T16:51:23;22.88;;;11.40;;
28170;SDS011;15458;53.346;-1.688;2023-02-15T16:54:07;21.30;;;11.50;;
28170;SDS011;15458;53.346;-1.688;2023-02-15T16:56:39;18.08;;;10.43;;
28170;SDS011;15458;53.346;-1.688;2023-02-15T16:59:14;22.90;;;12.07;;
28170;SDS011;15458;53.346;-1.688;2023-02-15T17:01:48;19.73;;;11.15;;
28170;SDS011;15458;53.346;-1.688;2023-02-15T17:04:23;22.25;;;11.32;;
28170;SDS011;15458;53.346;-1.688;2023-02-15T17:07:15;17.88;;;10.10;;
28170;SDS011;15458;53.346;-1.688;2023-02-15T17:09:53;18.70;;;8.32;;
28170;SDS011;15458;53.346;-1.688;2023-02-15T17:15:24;13.48;;;6.80;;
28170;SDS011;15458;53.346;-1.688;2023-02-15T17:18:04;19.17;;;7.32;;
28170;SDS011;15458;53.346;-1.688;2023-02-15T17:20:31;14.65;;;7.57;;
28170;SDS011;15458;53.346;-1.688;2023-02-15T17:22:58;10.73;;;6.22;;
28170;SDS011;15458;53.346;-1.688;2023-02-15T17:25:26;15.40;;;7.25;;
28170;SDS011;15458;53.346;-1.688;2023-02-15T17:27:58;13.45;;;6.32;;
28170;SDS011;15458;53.346;-1.688;2023-02-15T17:30:26;10.45;;;6.03;;
28170;SDS011;15458;53.346;-1.688;2023-02-15T17:32:58;16.92;;;6.32;;
28170;SDS011;15458;53.346;-1.688;2023-02-15T17:35:28;12.27;;;6.03;;
28170;SDS011;15458;53.346;-1.688;2023-02-15T17:38:03;11.07;;;6.20;;
28170;SDS011;15458;53.346;-1.688;2023-02-15T17:40:49;12.55;;;6.13;;
28170;SDS011;15458;53.346;-1.688;2023-02-15T17:43:15;11.27;;;4.93;;
28170;SDS011;15458;53.346;-1.688;2023-02-15T17:45:43;11.48;;;5.78;;
28170;SDS011;15458;53.346;-1.688;2023-02-15T17:50:45;11.05;;;5.95;;
28170;SDS011;15458;53.346;-1.688;2023-02-15T17:53:10;13.48;;;5.20;;
28170;SDS011;15458;53.346;-1.688;2023-02-15T17:55:40;11.63;;;4.80;;
28170;SDS011;15458;53.346;-1.688;2023-02-15T18:00:38;10.30;;;4.82;;
28170;SDS011;15458;53.346;-1.688;2023-02-15T18:03:26;12.40;;;4.38;;
28170;SDS011;15458;53.346;-1.688;2023-02-15T18:06:17;9.18;;;3.63;;
28170;SDS011;15458;53.346;-1.688;2023-02-15T18:09:01;12.70;;;4.13;;
28170;SDS011;15458;53.346;-1.688;2023-02-15T18:11:45;12.55;;;4.15;;